createdAt,value
2018-09-20T00:02:07.636Z,4.30
2018-09-20T00:04:36.148Z,4.33
2018-09-20T00:07:04.608Z,4.10
2018-09-20T00:09:33.117Z,4.00
2018-09-20T00:12:01.491Z,3.97
2018-09-20T00:14:30.017Z,4.00
2018-09-20T00:16:59.034Z,4.00
2018-09-20T00:19:27.435Z,3.97
2018-09-20T00:21:56.397Z,3.80
2018-09-20T00:24:24.976Z,3.80
2018-09-20T00:26:53.379Z,3.97
2018-09-20T00:29:29.558Z,3.93
2018-09-20T00:31:58.180Z,3.70
2018-09-20T00:34:26.608Z,4.10
2018-09-20T00:36:56.545Z,3.70
2018-09-20T00:39:24.985Z,4.17
2018-09-20T00:41:53.418Z,3.77
2018-09-20T00:44:21.844Z,3.73
2018-09-20T00:46:50.340Z,4.00
2018-09-20T00:49:19.062Z,4.10
2018-09-20T00:51:47.463Z,3.80
2018-09-20T00:54:17.143Z,3.60
2018-09-20T00:56:45.576Z,4.23
2018-09-20T00:59:14.100Z,3.70
2018-09-20T01:01:46.487Z,3.73
2018-09-20T01:04:15.614Z,3.73
2018-09-20T01:06:44.987Z,3.33
2018-09-20T01:09:13.467Z,3.40
2018-09-20T01:11:41.879Z,3.33
2018-09-20T01:14:10.683Z,3.70
2018-09-20T01:16:39.099Z,3.23
2018-09-20T01:19:07.500Z,3.60
2018-09-20T01:21:35.931Z,4.10
2018-09-20T01:24:04.719Z,3.70
2018-09-20T01:26:33.153Z,3.83
2018-09-20T01:29:01.608Z,3.70
2018-09-20T01:31:30.045Z,3.30
2018-09-20T01:33:58.461Z,3.47
2018-09-20T01:36:27.097Z,3.70
2018-09-20T01:38:55.777Z,3.27
2018-09-20T01:41:24.252Z,3.60
2018-09-20T01:43:52.649Z,3.20
2018-09-20T01:46:23.037Z,3.80
2018-09-20T01:48:54.132Z,3.40
2018-09-20T01:51:22.561Z,3.17
2018-09-20T01:53:51.284Z,3.27
2018-09-20T01:56:19.772Z,2.60
2018-09-20T01:58:48.216Z,2.87
2018-09-20T02:01:16.646Z,2.67
2018-09-20T02:03:45.521Z,3.37
2018-09-20T02:06:13.940Z,3.20
2018-09-20T02:08:44.064Z,2.90
2018-09-20T02:11:12.808Z,2.87
2018-09-20T02:17:04.323Z,3.40
2018-09-20T02:19:32.475Z,3.40
2018-09-20T02:24:41.039Z,3.57
2018-09-20T02:27:09.199Z,3.33
2018-09-20T02:29:37.367Z,3.93
2018-09-20T02:32:05.528Z,3.40
2018-09-20T02:34:33.707Z,3.07
2018-09-20T02:37:02.206Z,3.53
2018-09-20T02:39:30.592Z,3.43
2018-09-20T02:41:59.081Z,3.60
2018-09-20T02:44:27.756Z,4.13
2018-09-20T02:46:56.196Z,3.23
2018-09-20T02:49:25.444Z,3.40
2018-09-20T02:51:53.861Z,3.00
2018-09-20T02:54:22.296Z,3.37
2018-09-20T02:56:50.828Z,3.00
2018-09-20T03:01:58.611Z,3.40
2018-09-20T03:04:28.048Z,3.10
2018-09-20T03:06:57.157Z,2.40
2018-09-20T03:09:26.052Z,3.00
2018-09-20T03:11:54.760Z,2.80
2018-09-20T03:14:25.102Z,2.80
2018-09-20T03:16:53.669Z,3.23
2018-09-20T03:19:22.765Z,2.97
2018-09-20T03:21:51.421Z,3.30
2018-09-20T03:24:19.809Z,3.13
2018-09-20T03:26:48.218Z,3.50
2018-09-20T03:29:17.408Z,3.30
2018-09-20T03:31:46.216Z,2.93
2018-09-20T03:34:14.629Z,2.90
2018-09-20T03:36:43.382Z,3.20
2018-09-20T03:39:12.450Z,3.30
2018-09-20T03:41:41.465Z,3.33
2018-09-20T03:44:09.916Z,3.30
2018-09-20T03:46:38.412Z,3.60
2018-09-20T03:49:08.168Z,4.07
2018-09-20T03:51:36.581Z,3.53
2018-09-20T03:54:05.388Z,4.43
2018-09-20T03:56:34.009Z,5.30
2018-09-20T03:59:02.458Z,4.70
2018-09-20T04:01:30.876Z,4.20
2018-09-20T04:03:59.624Z,3.97
2018-09-20T04:06:28.096Z,3.83
2018-09-20T04:08:56.532Z,4.00
2018-09-20T04:11:25.203Z,3.60
2018-09-20T04:13:54.003Z,3.10
2018-09-20T04:16:22.885Z,3.07
2018-09-20T04:18:52.182Z,3.90
2018-09-20T04:21:24.940Z,3.33
2018-09-20T04:26:44.622Z,2.80
2018-09-20T04:29:12.983Z,2.67
2018-09-20T04:31:41.972Z,2.90
2018-09-20T04:34:11.021Z,3.10
2018-09-20T04:40:47.336Z,3.10
2018-09-20T04:43:15.483Z,2.73
2018-09-20T04:45:46.033Z,2.73
2018-09-20T04:48:14.492Z,2.53
2018-09-20T04:50:42.924Z,2.50
2018-09-20T04:53:11.528Z,3.10
2018-09-20T04:55:40.335Z,3.33
2018-09-20T04:58:08.897Z,3.20
2018-09-20T05:00:37.328Z,3.30
2018-09-20T05:03:06.418Z,3.47
2018-09-20T05:05:34.904Z,2.90
2018-09-20T05:08:03.752Z,3.50
2018-09-20T05:13:08.883Z,3.60
2018-09-20T05:15:37.301Z,3.47
2018-09-20T05:18:06.105Z,3.80
2018-09-20T05:20:34.552Z,3.53
2018-09-20T05:23:03.011Z,3.40
2018-09-20T05:25:31.799Z,3.73
2018-09-20T05:28:00.216Z,3.60
2018-09-20T05:30:28.949Z,3.57
2018-09-20T05:32:57.388Z,3.50
2018-09-20T05:35:26.090Z,3.47
2018-09-20T05:37:54.890Z,3.70
2018-09-20T05:40:23.374Z,3.50
2018-09-20T05:42:52.013Z,3.33
2018-09-20T05:45:20.566Z,2.80
2018-09-20T05:47:49.109Z,3.57
2018-09-20T05:50:18.069Z,3.30
2018-09-20T05:52:46.510Z,3.00
2018-09-20T05:55:15.077Z,3.90
2018-09-20T05:57:46.980Z,3.53
2018-09-20T06:00:15.713Z,3.80
2018-09-20T06:02:44.180Z,3.40
2018-09-20T06:05:12.632Z,3.30
2018-09-20T06:07:41.237Z,4.00
2018-09-20T06:10:10.056Z,3.20
2018-09-20T06:12:38.456Z,3.70
2018-09-20T06:15:06.889Z,4.20
2018-09-20T06:17:36.585Z,3.80
2018-09-20T06:20:05.040Z,4.40
2018-09-20T06:22:33.469Z,4.40
2018-09-20T06:25:02.065Z,5.17
2018-09-20T06:27:30.531Z,3.93
2018-09-20T06:29:58.937Z,3.60
2018-09-20T06:32:27.665Z,3.80
2018-09-20T06:34:56.114Z,3.93
2018-09-20T06:37:24.477Z,3.67
2018-09-20T06:39:54.143Z,3.60
2018-09-20T06:42:22.600Z,3.17
2018-09-20T06:44:51.749Z,2.93
2018-09-20T06:47:20.152Z,3.50
2018-09-20T06:49:48.790Z,3.10
2018-09-20T06:52:17.291Z,3.40
2018-09-20T06:54:45.756Z,3.27
2018-09-20T06:57:14.205Z,3.47
2018-09-20T06:59:42.992Z,3.70
2018-09-20T07:02:12.032Z,3.50
2018-09-20T07:04:40.313Z,3.60
2018-09-20T07:07:08.677Z,3.80
2018-09-20T07:09:37.757Z,4.10
2018-09-20T07:12:06.199Z,3.83
2018-09-20T07:14:34.920Z,4.27
2018-09-20T07:17:06.696Z,4.50
2018-09-20T07:19:35.534Z,5.03
2018-09-20T07:22:03.957Z,4.70
2018-09-20T07:24:32.412Z,4.80
2018-09-20T07:27:00.784Z,4.83
2018-09-20T07:29:35.089Z,4.67
2018-09-20T07:32:04.344Z,5.00
2018-09-20T07:34:32.896Z,5.17
2018-09-20T07:37:01.385Z,5.67
2018-09-20T07:39:29.664Z,5.60
2018-09-20T07:41:58.117Z,6.05
2018-09-20T07:44:26.470Z,6.55
2018-09-20T07:46:55.061Z,6.25
2018-09-20T07:49:23.460Z,6.83
2018-09-20T07:51:52.200Z,5.95
2018-09-20T07:54:20.741Z,6.17
2018-09-20T07:56:49.198Z,6.80
2018-09-20T07:59:17.551Z,6.37
2018-09-20T08:01:46.244Z,6.10
2018-09-20T08:04:15.153Z,6.10
2018-09-20T08:06:43.643Z,6.00
2018-09-20T08:09:13.188Z,6.37
2018-09-20T08:11:41.776Z,6.40
2018-09-20T08:14:10.675Z,6.15
2018-09-20T08:16:40.665Z,6.60
2018-09-20T08:19:09.432Z,5.50
2018-09-20T08:21:40.091Z,5.40
2018-09-20T08:24:08.399Z,5.40
2018-09-20T08:26:37.425Z,5.50
2018-09-20T08:29:06.242Z,6.10
2018-09-20T08:31:34.653Z,6.10
2018-09-20T08:34:03.102Z,6.25
2018-09-20T08:36:33.068Z,6.97
2018-09-20T08:39:02.589Z,5.90
2018-09-20T08:41:31.048Z,6.53
2018-09-20T08:43:59.432Z,5.93
2018-09-20T08:46:28.152Z,5.80
2018-09-20T08:48:56.633Z,5.90
2018-09-20T08:51:25.078Z,5.13
2018-09-20T08:53:53.819Z,5.20
2018-09-20T08:56:23.463Z,5.53
2018-09-20T08:58:52.605Z,5.72
2018-09-20T09:01:21.101Z,4.85
2018-09-20T09:03:49.502Z,5.22
2018-09-20T09:06:17.909Z,5.28
2018-09-20T09:08:46.445Z,4.62
2018-09-20T09:11:14.966Z,4.85
2018-09-20T09:13:43.680Z,4.55
2018-09-20T09:16:12.153Z,4.28
2018-09-20T09:18:41.361Z,5.08
2018-09-20T09:21:09.727Z,4.47
2018-09-20T09:23:38.144Z,5.08
2018-09-20T09:26:06.565Z,4.65
2018-09-20T09:28:35.729Z,4.80
2018-09-20T09:31:04.166Z,5.15
2018-09-20T09:33:32.637Z,4.87
2018-09-20T09:36:01.060Z,4.42
2018-09-20T09:38:29.462Z,4.73
2018-09-20T09:40:57.860Z,4.30
2018-09-20T09:43:26.456Z,4.90
2018-09-20T09:45:54.913Z,4.70
2018-09-20T09:48:23.746Z,4.60
2018-09-20T09:50:55.689Z,4.87
2018-09-20T09:53:26.916Z,5.00
2018-09-20T09:55:55.608Z,4.22
2018-09-20T09:58:23.992Z,5.78
2018-09-20T10:00:54.653Z,5.12
2018-09-20T10:06:01.934Z,5.08
2018-09-20T10:08:30.501Z,5.00
2018-09-20T10:10:59.151Z,5.08
2018-09-20T10:13:27.982Z,4.70
2018-09-20T10:15:56.468Z,4.73
2018-09-20T10:18:24.881Z,5.00
2018-09-20T10:20:55.380Z,5.15
2018-09-20T10:23:24.276Z,5.77
2018-09-20T10:25:52.689Z,5.87
2018-09-20T10:28:21.129Z,5.30
2018-09-20T10:30:49.789Z,5.70
2018-09-20T10:33:18.288Z,4.90
2018-09-20T10:35:47.063Z,5.07
2018-09-20T10:38:15.482Z,5.83
2018-09-20T10:40:43.865Z,5.17
2018-09-20T10:43:12.325Z,6.00
2018-09-20T10:45:40.775Z,6.00
2018-09-20T10:48:09.628Z,5.70
2018-09-20T10:50:38.023Z,5.13
2018-09-20T10:53:06.389Z,5.00
2018-09-20T10:55:35.441Z,5.17
2018-09-20T10:58:03.840Z,5.17
2018-09-20T11:00:32.334Z,5.80
2018-09-20T11:03:01.439Z,5.80
2018-09-20T11:05:29.896Z,5.97
2018-09-20T11:07:58.312Z,5.40
2018-09-20T11:10:27.552Z,5.77
2018-09-20T11:12:56.153Z,5.07
2018-09-20T11:15:24.584Z,5.80
2018-09-20T11:17:53.069Z,5.67
2018-09-20T11:20:21.839Z,5.90
2018-09-20T11:22:50.588Z,5.43
2018-09-20T11:27:57.599Z,5.20
2018-09-20T11:30:25.759Z,5.60
2018-09-20T11:32:54.015Z,5.27
2018-09-20T11:35:22.299Z,4.97
2018-09-20T11:37:50.754Z,5.00
2018-09-20T11:40:18.908Z,4.80
2018-09-20T11:42:47.108Z,5.43
2018-09-20T11:45:15.315Z,5.80
2018-09-20T11:47:43.499Z,5.90
2018-09-20T11:50:13.162Z,5.93
2018-09-20T11:52:45.397Z,5.00
2018-09-20T11:55:13.760Z,5.70
2018-09-20T11:57:42.184Z,5.50
2018-09-20T12:00:12.585Z,5.30
2018-09-20T12:02:41.020Z,5.17
2018-09-20T12:05:09.441Z,4.77
2018-09-20T12:07:38.049Z,6.53
2018-09-20T12:10:06.481Z,5.53
2018-09-20T12:12:35.368Z,4.73
2018-09-20T12:15:04.013Z,5.60
2018-09-20T12:17:32.478Z,5.30
2018-09-20T12:20:01.079Z,5.27
2018-09-20T12:22:29.359Z,5.30
2018-09-20T12:24:59.195Z,5.47
2018-09-20T12:27:27.595Z,5.30
2018-09-20T12:29:56.905Z,5.20
2018-09-20T12:32:25.404Z,4.87
2018-09-20T12:34:53.804Z,5.60
2018-09-20T12:37:26.393Z,5.37
2018-09-20T12:39:54.788Z,5.87
2018-09-20T12:42:23.795Z,5.43
2018-09-20T12:44:52.997Z,5.40
2018-09-20T12:47:21.840Z,5.00
2018-09-20T12:49:50.383Z,5.30
2018-09-20T12:52:18.848Z,4.83
2018-09-20T12:54:47.645Z,6.03
2018-09-20T12:57:16.453Z,5.70
2018-09-20T12:59:45.284Z,5.93
2018-09-20T13:02:13.765Z,5.10
2018-09-20T13:04:42.139Z,5.90
2018-09-20T13:07:10.560Z,5.60
2018-09-20T13:09:38.961Z,5.57
2018-09-20T13:12:07.893Z,5.00
2018-09-20T13:14:36.323Z,5.63
2018-09-20T13:17:06.094Z,5.13
2018-09-20T13:19:36.677Z,4.90
2018-09-20T13:22:05.175Z,4.90
2018-09-20T13:24:33.661Z,5.30
2018-09-20T13:27:02.201Z,5.30
2018-09-20T13:29:30.799Z,4.37
2018-09-20T13:31:59.520Z,4.73
2018-09-20T13:34:28.380Z,4.60
2018-09-20T13:36:56.853Z,4.63
2018-09-20T13:39:25.802Z,4.73
2018-09-20T13:41:54.218Z,4.17
2018-09-20T13:44:22.697Z,5.17
2018-09-20T13:46:51.220Z,5.17
2018-09-20T13:49:21.418Z,4.87
2018-09-20T13:51:49.919Z,5.37
2018-09-20T13:54:18.353Z,5.03
2018-09-20T13:56:47.112Z,4.70
2018-09-20T13:59:15.604Z,5.13
2018-09-20T14:01:44.401Z,5.30
2018-09-20T14:04:13.128Z,4.70
2018-09-20T14:06:42.389Z,5.20
2018-09-20T14:09:11.916Z,4.57
2018-09-20T14:11:40.776Z,5.00
2018-09-20T14:14:10.227Z,5.07
2018-09-20T14:16:38.582Z,4.80
2018-09-20T14:19:07.594Z,5.27
2018-09-20T14:21:36.408Z,5.03
2018-09-20T14:24:04.848Z,5.10
2018-09-20T14:26:33.218Z,5.13
2018-09-20T14:29:01.712Z,5.43
2018-09-20T14:31:30.525Z,4.50
2018-09-20T14:33:58.920Z,5.57
2018-09-20T14:36:27.953Z,5.10
2018-09-20T14:38:56.713Z,5.00
2018-09-20T14:41:25.816Z,4.47
2018-09-20T14:43:54.465Z,5.17
2018-09-20T14:46:23.128Z,5.13
2018-09-20T14:48:51.622Z,5.03
2018-09-20T14:51:20.024Z,5.03
2018-09-20T14:53:48.716Z,5.30
2018-09-20T14:56:17.326Z,5.83
2018-09-20T14:58:47.537Z,5.17
2018-09-20T15:01:16.065Z,5.50
2018-09-20T15:03:44.464Z,5.13
2018-09-20T15:06:15.329Z,5.40
2018-09-20T15:08:43.717Z,5.20
2018-09-20T15:11:12.266Z,5.30
2018-09-20T15:13:40.633Z,5.00
2018-09-20T15:16:09.229Z,4.70
2018-09-20T15:18:37.595Z,5.50
2018-09-20T15:21:06.049Z,5.07
2018-09-20T15:23:35.222Z,5.30
2018-09-20T15:26:04.406Z,5.27
2018-09-20T15:28:32.805Z,5.17
2018-09-20T15:31:01.267Z,4.83
2018-09-20T15:33:29.692Z,5.30
2018-09-20T15:35:58.332Z,4.77
2018-09-20T15:38:26.705Z,4.93
2018-09-20T15:40:55.142Z,5.20
2018-09-20T15:43:23.485Z,5.37
2018-09-20T15:45:52.397Z,5.40
2018-09-20T15:48:21.010Z,4.93
2018-09-20T15:50:49.868Z,5.17
2018-09-20T15:53:18.940Z,4.83
2018-09-20T15:55:47.839Z,5.20
2018-09-20T15:58:16.623Z,4.63
2018-09-20T16:00:45.959Z,5.57
2018-09-20T16:03:14.413Z,4.97
2018-09-20T16:05:45.217Z,4.60
2018-09-20T16:08:13.864Z,5.00
2018-09-20T16:10:42.718Z,5.10
2018-09-20T16:13:13.932Z,5.30
2018-09-20T16:15:44.530Z,5.23
2018-09-20T16:18:16.423Z,5.33
2018-09-20T16:20:45.148Z,5.30
2018-09-20T16:23:15.013Z,5.03
2018-09-20T16:25:43.661Z,5.00
2018-09-20T16:28:19.722Z,5.47
2018-09-20T16:31:12.850Z,5.93
2018-09-20T16:34:24.943Z,5.60
2018-09-20T16:37:11.385Z,5.40
2018-09-20T16:39:42.156Z,6.03
2018-09-20T16:42:12.401Z,6.63
2018-09-20T16:44:40.808Z,8.37
2018-09-20T16:47:09.281Z,6.23
2018-09-20T16:49:39.517Z,5.67
2018-09-20T16:52:07.873Z,5.47
2018-09-20T16:54:38.164Z,4.87
2018-09-20T16:57:06.650Z,5.20
2018-09-20T16:59:35.374Z,5.87
2018-09-20T17:02:04.053Z,5.40
2018-09-20T17:04:34.194Z,6.00
2018-09-20T17:07:02.699Z,11.57
2018-09-20T17:09:31.196Z,14.70
2018-09-20T17:11:59.693Z,9.33
2018-09-20T17:14:28.368Z,6.87
2018-09-20T17:16:57.257Z,6.20
2018-09-20T17:22:04.368Z,7.87
2018-09-20T17:24:33.064Z,6.73
2018-09-20T17:27:01.807Z,7.10
2018-09-20T17:29:31.241Z,6.13
2018-09-20T17:31:59.929Z,7.60
2018-09-20T17:34:28.586Z,5.80
2018-09-20T17:36:58.364Z,5.07
2018-09-20T17:39:27.328Z,5.80
2018-09-20T17:41:56.572Z,5.87
2018-09-20T17:44:25.420Z,6.43
2018-09-20T17:46:54.195Z,6.60
2018-09-20T17:49:22.861Z,6.37
2018-09-20T17:51:55.085Z,5.60
2018-09-20T17:54:24.207Z,5.30
2018-09-20T17:56:53.402Z,5.37
2018-09-20T17:59:22.378Z,5.77
2018-09-20T18:01:51.045Z,6.13
2018-09-20T18:04:19.777Z,7.40
2018-09-20T18:06:48.473Z,8.07
2018-09-20T18:09:17.068Z,7.80
2018-09-20T18:11:46.176Z,7.50
2018-09-20T18:14:14.752Z,7.17
2018-09-20T18:16:44.211Z,7.37
2018-09-20T18:19:14.679Z,7.20
2018-09-20T18:21:43.523Z,5.80
2018-09-20T18:24:12.800Z,6.97
2018-09-20T18:26:41.557Z,6.60
2018-09-20T18:29:10.364Z,7.07
2018-09-20T18:31:39.548Z,6.77
2018-09-20T18:34:08.032Z,7.10
2018-09-20T18:36:36.500Z,8.00
2018-09-20T18:39:07.896Z,6.43
2018-09-20T18:41:36.335Z,7.20
2018-09-20T18:46:43.018Z,7.27
2018-09-20T18:49:11.437Z,6.93
2018-09-20T18:51:39.944Z,7.13
2018-09-20T18:54:08.429Z,7.37
2018-09-20T18:56:37.415Z,7.23
2018-09-20T18:59:05.702Z,6.43
2018-09-20T19:01:34.288Z,6.63
2018-09-20T19:04:02.947Z,7.33
2018-09-20T19:06:31.566Z,6.60
2018-09-20T19:09:00.630Z,6.77
2018-09-20T19:11:29.061Z,7.03
2018-09-20T19:13:57.549Z,7.23
2018-09-20T19:16:26.388Z,7.37
2018-09-20T19:18:54.779Z,6.87
2018-09-20T19:21:23.213Z,6.00
2018-09-20T19:23:52.217Z,6.83
2018-09-20T19:26:21.109Z,6.27
2018-09-20T19:28:49.569Z,6.23
2018-09-20T19:31:18.384Z,6.87
2018-09-20T19:33:47.712Z,6.40
2018-09-20T19:36:18.365Z,7.10
2018-09-20T19:38:46.958Z,6.10
2018-09-20T19:41:15.728Z,6.17
2018-09-20T19:43:44.293Z,7.17
2018-09-20T19:46:13.768Z,7.10
2018-09-20T19:48:42.208Z,7.80
2018-09-20T19:51:10.582Z,6.20
2018-09-20T19:53:39.252Z,6.40
2018-09-20T19:56:07.956Z,5.93
2018-09-20T19:58:37.626Z,6.00
2018-09-20T20:01:06.954Z,5.93
2018-09-20T20:03:35.429Z,6.03
2018-09-20T20:06:04.014Z,7.27
2018-09-20T20:08:32.437Z,6.53
2018-09-20T20:11:01.631Z,6.10
2018-09-20T20:13:30.138Z,7.20
2018-09-20T20:15:58.614Z,6.57
2018-09-20T20:18:28.125Z,6.67
2018-09-20T20:20:56.586Z,6.57
2018-09-20T20:23:25.440Z,6.77
2018-09-20T20:25:54.795Z,6.67
2018-09-20T20:28:25.640Z,6.83
2018-09-20T20:30:54.928Z,6.23
2018-09-20T20:33:23.360Z,6.30
2018-09-20T20:35:51.801Z,6.53
2018-09-20T20:38:20.402Z,5.87
2018-09-20T20:40:48.784Z,6.87
2018-09-20T20:43:17.865Z,6.00
2018-09-20T20:45:46.305Z,6.23
2018-09-20T20:48:16.375Z,6.00
2018-09-20T20:50:45.424Z,6.03
2018-09-20T20:53:13.877Z,7.00
2018-09-20T20:55:42.809Z,6.10
2018-09-20T20:58:12.233Z,6.70
2018-09-20T21:00:40.624Z,6.37
2018-09-20T21:03:09.484Z,6.10
2018-09-20T21:05:37.944Z,6.13
2018-09-20T21:08:06.684Z,6.37
2018-09-20T21:10:35.060Z,7.10
2018-09-20T21:13:03.456Z,6.43
2018-09-20T21:15:32.017Z,6.13
2018-09-20T21:20:54.785Z,6.87
2018-09-20T21:23:23.238Z,5.90
2018-09-20T21:28:29.304Z,6.83
2018-09-20T21:30:57.627Z,6.70
2018-09-20T21:33:25.843Z,6.30
2018-09-20T21:35:54.382Z,6.90
2018-09-20T21:38:22.804Z,6.73
2018-09-20T21:40:51.865Z,6.33
2018-09-20T21:43:20.492Z,7.10
2018-09-20T21:45:49.821Z,6.80
2018-09-20T21:48:18.604Z,6.70
2018-09-20T21:50:47.688Z,6.47
2018-09-20T21:53:16.465Z,6.47
2018-09-20T21:55:44.960Z,7.20
2018-09-20T21:58:15.560Z,6.27
2018-09-20T22:00:45.068Z,6.10
2018-09-20T22:03:13.449Z,6.53
2018-09-20T22:05:41.890Z,7.67
2018-09-20T22:08:10.880Z,6.57
2018-09-20T22:10:39.615Z,6.93
2018-09-20T22:13:08.644Z,6.73
2018-09-20T22:15:37.296Z,7.10
2018-09-20T22:18:06.192Z,6.30
2018-09-20T22:20:34.627Z,6.63
2018-09-20T22:23:03.365Z,6.80
2018-09-20T22:25:32.893Z,6.30
2018-09-20T22:28:02.774Z,7.13
2018-09-20T22:30:31.536Z,7.40
2018-09-20T22:32:59.963Z,6.40
2018-09-20T22:35:28.577Z,6.63
2018-09-20T22:37:57.041Z,6.73
2018-09-20T22:40:25.516Z,7.77
2018-09-20T22:42:54.628Z,7.13
2018-09-20T22:45:23.898Z,6.73
2018-09-20T22:47:52.770Z,6.17
2018-09-20T22:50:21.160Z,6.80
2018-09-20T22:52:49.592Z,7.17
2018-09-20T22:55:18.304Z,6.53
2018-09-20T22:57:46.692Z,6.17
2018-09-20T23:00:19.880Z,6.23
2018-09-20T23:02:48.432Z,5.90
2018-09-20T23:05:17.270Z,6.60
2018-09-20T23:07:45.928Z,6.83
2018-09-20T23:10:18.184Z,6.73
2018-09-20T23:12:47.196Z,6.70
2018-09-20T23:15:17.593Z,7.03
2018-09-20T23:17:46.825Z,6.43
2018-09-20T23:20:15.620Z,6.13
2018-09-20T23:22:44.612Z,6.27
2018-09-20T23:25:16.537Z,6.33
2018-09-20T23:27:44.991Z,6.00
2018-09-20T23:30:13.957Z,5.73
2018-09-20T23:32:42.417Z,5.83
2018-09-20T23:35:10.831Z,6.00
2018-09-20T23:37:39.196Z,5.97
2018-09-20T23:40:07.669Z,5.57
2018-09-20T23:42:36.060Z,6.40
2018-09-20T23:45:04.493Z,6.70
2018-09-20T23:50:09.996Z,6.83
2018-09-20T23:52:38.540Z,6.37
2018-09-20T23:55:07.013Z,7.40
2018-09-20T23:57:35.404Z,6.80
